sensor_id;sensor_type;location;lat;lon;timestamp;temperature;humidity
21302;DHT22;10810;48.270;9.996;2023-03-21T00:01:00;8.20;99.90
21302;DHT22;10810;48.270;9.996;2023-03-21T00:03:31;8.10;99.90
21302;DHT22;10810;48.270;9.996;2023-03-21T00:05:58;8.10;99.90
21302;DHT22;10810;48.270;9.996;2023-03-21T00:08:27;8.10;99.90
21302;DHT22;10810;48.270;9.996;2023-03-21T00:10:55;8.10;99.90
21302;DHT22;10810;48.270;9.996;2023-03-21T00:13:23;8.00;99.90
21302;DHT22;10810;48.270;9.996;2023-03-21T00:15:51;8.00;99.90
21302;DHT22;10810;48.270;9.996;2023-03-21T00:18:19;8.00;99.90
21302;DHT22;10810;48.270;9.996;2023-03-21T00:20:59;7.90;99.90
21302;DHT22;10810;48.270;9.996;2023-03-21T00:23:27;7.80;99.90
21302;DHT22;10810;48.270;9.996;2023-03-21T00:25:58;7.80;99.90
21302;DHT22;10810;48.270;9.996;2023-03-21T00:28:26;7.80;99.90
21302;DHT22;10810;48.270;9.996;2023-03-21T00:30:56;7.90;99.90
21302;DHT22;10810;48.270;9.996;2023-03-21T00:33:26;7.90;99.90
21302;DHT22;10810;48.270;9.996;2023-03-21T00:35:55;7.90;99.90
21302;DHT22;10810;48.270;9.996;2023-03-21T00:38:23;7.80;99.90
21302;DHT22;10810;48.270;9.996;2023-03-21T00:40:50;7.80;99.90
21302;DHT22;10810;48.270;9.996;2023-03-21T00:43:18;7.90;99.90
21302;DHT22;10810;48.270;9.996;2023-03-21T00:45:48;8.00;99.90
21302;DHT22;10810;48.270;9.996;2023-03-21T00:48:16;8.00;99.90
21302;DHT22;10810;48.270;9.996;2023-03-21T00:50:44;8.10;99.90
21302;DHT22;10810;48.270;9.996;2023-03-21T00:53:31;8.10;99.90
21302;DHT22;10810;48.270;9.996;2023-03-21T00:56:12;8.00;99.90
21302;DHT22;10810;48.270;9.996;2023-03-21T00:58:39;8.00;99.90
21302;DHT22;10810;48.270;9.996;2023-03-21T01:01:06;8.00;99.90
21302;DHT22;10810;48.270;9.996;2023-03-21T01:03:34;7.80;99.90
21302;DHT22;10810;48.270;9.996;2023-03-21T01:06:08;7.70;99.90
21302;DHT22;10810;48.270;9.996;2023-03-21T01:08:40;7.60;99.90
21302;DHT22;10810;48.270;9.996;2023-03-21T01:11:11;7.60;99.90
21302;DHT22;10810;48.270;9.996;2023-03-21T01:13:38;7.60;99.90
21302;DHT22;10810;48.270;9.996;2023-03-21T01:16:07;7.60;99.90
21302;DHT22;10810;48.270;9.996;2023-03-21T01:18:39;7.60;99.90
21302;DHT22;10810;48.270;9.996;2023-03-21T01:21:17;7.70;99.90
21302;DHT22;10810;48.270;9.996;2023-03-21T01:23:45;7.70;99.90
21302;DHT22;10810;48.270;9.996;2023-03-21T01:26:14;7.70;99.90
21302;DHT22;10810;48.270;9.996;2023-03-21T01:28:43;7.70;99.90
21302;DHT22;10810;48.270;9.996;2023-03-21T01:31:15;7.70;99.90
21302;DHT22;10810;48.270;9.996;2023-03-21T01:33:43;7.70;99.90
21302;DHT22;10810;48.270;9.996;2023-03-21T01:36:16;7.70;99.90
21302;DHT22;10810;48.270;9.996;2023-03-21T01:38:44;7.70;99.90
21302;DHT22;10810;48.270;9.996;2023-03-21T01:41:26;7.70;99.90
21302;DHT22;10810;48.270;9.996;2023-03-21T01:43:54;7.70;99.90
21302;DHT22;10810;48.270;9.996;2023-03-21T01:46:29;7.60;99.90
21302;DHT22;10810;48.270;9.996;2023-03-21T01:49:12;7.70;99.90
21302;DHT22;10810;48.270;9.996;2023-03-21T01:51:43;7.70;99.90
21302;DHT22;10810;48.270;9.996;2023-03-21T01:54:15;7.70;99.90
21302;DHT22;10810;48.270;9.996;2023-03-21T01:56:45;7.80;99.90
21302;DHT22;10810;48.270;9.996;2023-03-21T01:59:18;7.80;99.90
21302;DHT22;10810;48.270;9.996;2023-03-21T02:01:49;7.80;99.90
21302;DHT22;10810;48.270;9.996;2023-03-21T02:04:21;7.80;99.90
21302;DHT22;10810;48.270;9.996;2023-03-21T02:06:57;7.80;99.90
21302;DHT22;10810;48.270;9.996;2023-03-21T02:09:31;7.30;99.90
21302;DHT22;10810;48.270;9.996;2023-03-21T02:12:00;8.00;99.90
21302;DHT22;10810;48.270;9.996;2023-03-21T02:14:29;7.80;99.90
21302;DHT22;10810;48.270;9.996;2023-03-21T02:17:04;7.70;99.90
21302;DHT22;10810;48.270;9.996;2023-03-21T02:20:05;7.70;99.90
21302;DHT22;10810;48.270;9.996;2023-03-21T02:23:09;7.70;99.90
21302;DHT22;10810;48.270;9.996;2023-03-21T02:28:51;7.90;99.90
21302;DHT22;10810;48.270;9.996;2023-03-21T02:31:25;7.80;99.90
21302;DHT22;10810;48.270;9.996;2023-03-21T02:37:13;7.60;99.90
21302;DHT22;10810;48.270;9.996;2023-03-21T02:39:52;7.50;99.90
21302;DHT22;10810;48.270;9.996;2023-03-21T02:42:26;7.50;99.90
21302;DHT22;10810;48.270;9.996;2023-03-21T02:44:59;7.60;99.90
21302;DHT22;10810;48.270;9.996;2023-03-21T02:47:31;7.60;99.90
21302;DHT22;10810;48.270;9.996;2023-03-21T02:50:05;7.60;99.90
21302;DHT22;10810;48.270;9.996;2023-03-21T02:52:36;7.60;99.90
21302;DHT22;10810;48.270;9.996;2023-03-21T02:55:05;7.60;99.90
21302;DHT22;10810;48.270;9.996;2023-03-21T02:57:39;7.50;99.90
21302;DHT22;10810;48.270;9.996;2023-03-21T03:00:09;7.50;99.90
21302;DHT22;10810;48.270;9.996;2023-03-21T03:02:38;7.50;99.90
21302;DHT22;10810;48.270;9.996;2023-03-21T03:05:15;7.60;99.90
21302;DHT22;10810;48.270;9.996;2023-03-21T03:07:55;7.60;99.90
21302;DHT22;10810;48.270;9.996;2023-03-21T03:10:38;7.60;99.90
21302;DHT22;10810;48.270;9.996;2023-03-21T03:13:15;7.60;99.90
21302;DHT22;10810;48.270;9.996;2023-03-21T03:15:57;7.50;99.90
21302;DHT22;10810;48.270;9.996;2023-03-21T03:18:34;7.50;99.90
21302;DHT22;10810;48.270;9.996;2023-03-21T03:21:08;7.30;99.90
21302;DHT22;10810;48.270;9.996;2023-03-21T03:23:42;7.30;99.90
21302;DHT22;10810;48.270;9.996;2023-03-21T03:26:13;7.30;99.90
21302;DHT22;10810;48.270;9.996;2023-03-21T03:28:45;7.20;99.90
21302;DHT22;10810;48.270;9.996;2023-03-21T03:31:18;7.30;99.90
21302;DHT22;10810;48.270;9.996;2023-03-21T03:33:54;7.30;99.90
21302;DHT22;10810;48.270;9.996;2023-03-21T03:36:26;7.30;99.90
21302;DHT22;10810;48.270;9.996;2023-03-21T03:38:56;7.30;99.90
21302;DHT22;10810;48.270;9.996;2023-03-21T03:41:26;7.30;99.90
21302;DHT22;10810;48.270;9.996;2023-03-21T03:43:59;7.40;99.90
21302;DHT22;10810;48.270;9.996;2023-03-21T03:46:31;7.40;99.90
21302;DHT22;10810;48.270;9.996;2023-03-21T03:49:06;7.40;99.90
21302;DHT22;10810;48.270;9.996;2023-03-21T03:51:39;7.40;99.90
21302;DHT22;10810;48.270;9.996;2023-03-21T03:54:12;7.40;99.90
21302;DHT22;10810;48.270;9.996;2023-03-21T03:56:39;7.30;99.90
21302;DHT22;10810;48.270;9.996;2023-03-21T03:59:06;7.30;99.90
21302;DHT22;10810;48.270;9.996;2023-03-21T04:01:34;7.30;99.90
21302;DHT22;10810;48.270;9.996;2023-03-21T04:04:02;7.30;99.90
21302;DHT22;10810;48.270;9.996;2023-03-21T04:06:31;7.30;99.90
21302;DHT22;10810;48.270;9.996;2023-03-21T04:09:01;7.30;99.90
21302;DHT22;10810;48.270;9.996;2023-03-21T04:11:31;7.20;99.90
21302;DHT22;10810;48.270;9.996;2023-03-21T04:13:58;7.30;99.90
21302;DHT22;10810;48.270;9.996;2023-03-21T04:16:25;7.20;99.90
21302;DHT22;10810;48.270;9.996;2023-03-21T04:18:53;7.30;99.90
21302;DHT22;10810;48.270;9.996;2023-03-21T04:21:20;7.30;99.90
21302;DHT22;10810;48.270;9.996;2023-03-21T04:23:47;7.40;99.90
21302;DHT22;10810;48.270;9.996;2023-03-21T04:26:14;7.40;99.90
21302;DHT22;10810;48.270;9.996;2023-03-21T04:28:43;7.20;99.90
21302;DHT22;10810;48.270;9.996;2023-03-21T04:31:10;7.20;99.90
21302;DHT22;10810;48.270;9.996;2023-03-21T04:33:38;7.20;99.90
21302;DHT22;10810;48.270;9.996;2023-03-21T04:36:06;7.20;99.90
21302;DHT22;10810;48.270;9.996;2023-03-21T04:38:52;7.30;99.90
21302;DHT22;10810;48.270;9.996;2023-03-21T04:41:19;7.40;99.90
21302;DHT22;10810;48.270;9.996;2023-03-21T04:43:47;7.30;99.90
21302;DHT22;10810;48.270;9.996;2023-03-21T04:46:15;7.30;99.90
21302;DHT22;10810;48.270;9.996;2023-03-21T04:48:42;7.20;99.90
21302;DHT22;10810;48.270;9.996;2023-03-21T04:51:09;7.10;99.90
21302;DHT22;10810;48.270;9.996;2023-03-21T04:53:36;7.20;99.90
21302;DHT22;10810;48.270;9.996;2023-03-21T04:56:04;7.10;99.90
21302;DHT22;10810;48.270;9.996;2023-03-21T04:58:32;7.10;99.90
21302;DHT22;10810;48.270;9.996;2023-03-21T05:01:00;7.10;99.90
21302;DHT22;10810;48.270;9.996;2023-03-21T05:03:30;7.10;99.90
21302;DHT22;10810;48.270;9.996;2023-03-21T05:05:59;7.10;99.90
21302;DHT22;10810;48.270;9.996;2023-03-21T05:08:26;7.20;99.90
21302;DHT22;10810;48.270;9.996;2023-03-21T05:10:53;7.00;99.90
21302;DHT22;10810;48.270;9.996;2023-03-21T05:13:20;6.90;99.90
21302;DHT22;10810;48.270;9.996;2023-03-21T05:15:47;6.90;99.90
21302;DHT22;10810;48.270;9.996;2023-03-21T05:18:16;6.90;99.90
21302;DHT22;10810;48.270;9.996;2023-03-21T05:20:50;6.90;99.90
21302;DHT22;10810;48.270;9.996;2023-03-21T05:23:19;6.80;99.90
21302;DHT22;10810;48.270;9.996;2023-03-21T05:25:46;6.90;99.90
21302;DHT22;10810;48.270;9.996;2023-03-21T05:28:13;6.90;99.90
21302;DHT22;10810;48.270;9.996;2023-03-21T05:30:43;7.00;99.90
21302;DHT22;10810;48.270;9.996;2023-03-21T05:33:10;6.90;99.90
21302;DHT22;10810;48.270;9.996;2023-03-21T05:35:39;6.90;99.90
21302;DHT22;10810;48.270;9.996;2023-03-21T05:38:06;6.90;99.90
21302;DHT22;10810;48.270;9.996;2023-03-21T05:40:33;6.90;99.90
21302;DHT22;10810;48.270;9.996;2023-03-21T05:43:01;6.90;99.90
21302;DHT22;10810;48.270;9.996;2023-03-21T05:45:30;7.00;99.90
21302;DHT22;10810;48.270;9.996;2023-03-21T05:47:58;7.00;99.90
21302;DHT22;10810;48.270;9.996;2023-03-21T05:50:25;7.00;99.90
21302;DHT22;10810;48.270;9.996;2023-03-21T05:52:54;7.00;99.90
21302;DHT22;10810;48.270;9.996;2023-03-21T05:55:24;7.00;99.90
21302;DHT22;10810;48.270;9.996;2023-03-21T05:57:56;7.10;99.90
21302;DHT22;10810;48.270;9.996;2023-03-21T06:00:26;7.10;99.90
21302;DHT22;10810;48.270;9.996;2023-03-21T06:03:00;7.10;99.90
21302;DHT22;10810;48.270;9.996;2023-03-21T06:05:28;7.10;99.90
21302;DHT22;10810;48.270;9.996;2023-03-21T06:07:57;7.20;99.90
21302;DHT22;10810;48.270;9.996;2023-03-21T06:10:24;7.20;99.90
21302;DHT22;10810;48.270;9.996;2023-03-21T06:12:51;7.20;99.90
21302;DHT22;10810;48.270;9.996;2023-03-21T06:15:20;7.20;99.90
21302;DHT22;10810;48.270;9.996;2023-03-21T06:17:47;7.20;99.90
21302;DHT22;10810;48.270;9.996;2023-03-21T06:20:14;7.40;99.90
21302;DHT22;10810;48.270;9.996;2023-03-21T06:22:41;7.50;99.90
21302;DHT22;10810;48.270;9.996;2023-03-21T06:25:09;7.50;99.90
21302;DHT22;10810;48.270;9.996;2023-03-21T06:27:36;7.50;99.90
21302;DHT22;10810;48.270;9.996;2023-03-21T06:30:04;7.50;99.90
21302;DHT22;10810;48.270;9.996;2023-03-21T06:32:32;7.50;99.90
21302;DHT22;10810;48.270;9.996;2023-03-21T06:34:59;7.50;99.90
21302;DHT22;10810;48.270;9.996;2023-03-21T06:37:26;7.60;99.90
21302;DHT22;10810;48.270;9.996;2023-03-21T06:39:53;7.60;99.90
21302;DHT22;10810;48.270;9.996;2023-03-21T06:42:22;7.60;99.90
21302;DHT22;10810;48.270;9.996;2023-03-21T06:44:49;7.50;99.90
21302;DHT22;10810;48.270;9.996;2023-03-21T06:47:16;7.50;99.90
21302;DHT22;10810;48.270;9.996;2023-03-21T06:49:43;7.50;99.90
21302;DHT22;10810;48.270;9.996;2023-03-21T06:52:10;7.60;99.90
21302;DHT22;10810;48.270;9.996;2023-03-21T06:54:39;7.70;99.90
21302;DHT22;10810;48.270;9.996;2023-03-21T06:57:06;7.80;99.90
21302;DHT22;10810;48.270;9.996;2023-03-21T06:59:35;8.00;99.90
21302;DHT22;10810;48.270;9.996;2023-03-21T07:02:02;8.00;99.90
21302;DHT22;10810;48.270;9.996;2023-03-21T07:04:29;8.00;99.90
21302;DHT22;10810;48.270;9.996;2023-03-21T07:07:00;8.00;99.90
21302;DHT22;10810;48.270;9.996;2023-03-21T07:09:27;8.10;99.90
21302;DHT22;10810;48.270;9.996;2023-03-21T07:11:54;8.30;99.90
21302;DHT22;10810;48.270;9.996;2023-03-21T07:14:22;8.40;99.90
21302;DHT22;10810;48.270;9.996;2023-03-21T07:16:51;8.50;99.90
21302;DHT22;10810;48.270;9.996;2023-03-21T07:19:20;8.50;99.90
21302;DHT22;10810;48.270;9.996;2023-03-21T07:21:47;8.50;99.90
21302;DHT22;10810;48.270;9.996;2023-03-21T07:24:15;8.60;99.90
21302;DHT22;10810;48.270;9.996;2023-03-21T07:26:42;8.70;99.90
21302;DHT22;10810;48.270;9.996;2023-03-21T07:29:11;8.70;99.90
21302;DHT22;10810;48.270;9.996;2023-03-21T07:31:52;8.80;99.90
21302;DHT22;10810;48.270;9.996;2023-03-21T07:34:22;9.00;99.90
21302;DHT22;10810;48.270;9.996;2023-03-21T07:36:49;9.00;99.90
21302;DHT22;10810;48.270;9.996;2023-03-21T07:39:16;9.10;99.90
21302;DHT22;10810;48.270;9.996;2023-03-21T07:41:44;9.10;99.90
21302;DHT22;10810;48.270;9.996;2023-03-21T07:44:11;9.20;99.90
21302;DHT22;10810;48.270;9.996;2023-03-21T07:46:38;9.30;99.90
21302;DHT22;10810;48.270;9.996;2023-03-21T07:49:06;9.50;99.90
21302;DHT22;10810;48.270;9.996;2023-03-21T07:51:34;9.60;99.90
21302;DHT22;10810;48.270;9.996;2023-03-21T07:54:22;9.70;99.90
21302;DHT22;10810;48.270;9.996;2023-03-21T07:57:12;9.80;99.90
21302;DHT22;10810;48.270;9.996;2023-03-21T07:59:42;9.90;99.90
21302;DHT22;10810;48.270;9.996;2023-03-21T08:02:13;10.00;99.90
21302;DHT22;10810;48.270;9.996;2023-03-21T08:04:45;10.00;99.90
21302;DHT22;10810;48.270;9.996;2023-03-21T08:07:12;10.20;99.90
21302;DHT22;10810;48.270;9.996;2023-03-21T08:09:39;10.30;99.90
21302;DHT22;10810;48.270;9.996;2023-03-21T08:12:06;10.40;99.90
21302;DHT22;10810;48.270;9.996;2023-03-21T08:14:49;10.40;99.90
21302;DHT22;10810;48.270;9.996;2023-03-21T08:17:16;10.50;99.90
21302;DHT22;10810;48.270;9.996;2023-03-21T08:19:43;10.50;99.90
21302;DHT22;10810;48.270;9.996;2023-03-21T08:22:17;10.50;99.90
21302;DHT22;10810;48.270;9.996;2023-03-21T08:38:28;10.80;99.90
21302;DHT22;10810;48.270;9.996;2023-03-21T08:41:04;11.40;99.90
21302;DHT22;10810;48.270;9.996;2023-03-21T08:43:34;11.50;99.90
21302;DHT22;10810;48.270;9.996;2023-03-21T08:52:55;12.40;99.90
21302;DHT22;10810;48.270;9.996;2023-03-21T08:55:28;12.00;99.90
21302;DHT22;10810;48.270;9.996;2023-03-21T09:08:05;12.30;99.90
21302;DHT22;10810;48.270;9.996;2023-03-21T09:10:33;12.50;99.90
21302;DHT22;10810;48.270;9.996;2023-03-21T09:13:01;12.60;99.90
21302;DHT22;10810;48.270;9.996;2023-03-21T13:36:11;16.20;94.70
21302;DHT22;10810;48.270;9.996;2023-03-21T13:42:29;16.10;93.70
21302;DHT22;10810;48.270;9.996;2023-03-21T13:45:00;16.10;94.00
21302;DHT22;10810;48.270;9.996;2023-03-21T13:55:49;15.90;94.90
21302;DHT22;10810;48.270;9.996;2023-03-21T13:58:59;16.00;95.10
21302;DHT22;10810;48.270;9.996;2023-03-21T14:04:43;15.60;92.70
21302;DHT22;10810;48.270;9.996;2023-03-21T17:36:39;12.80;99.90
21302;DHT22;10810;48.270;9.996;2023-03-21T17:39:27;12.70;99.90
21302;DHT22;10810;48.270;9.996;2023-03-21T17:42:10;12.60;99.90
21302;DHT22;10810;48.270;9.996;2023-03-21T17:44:46;12.50;99.90
21302;DHT22;10810;48.270;9.996;2023-03-21T17:47:17;12.50;99.90
21302;DHT22;10810;48.270;9.996;2023-03-21T17:50:30;12.50;99.90
21302;DHT22;10810;48.270;9.996;2023-03-21T17:53:14;12.50;99.90
21302;DHT22;10810;48.270;9.996;2023-03-21T17:59:28;12.30;99.90
21302;DHT22;10810;48.270;9.996;2023-03-21T18:02:17;12.30;99.90
21302;DHT22;10810;48.270;9.996;2023-03-21T18:04:45;12.50;99.90
21302;DHT22;10810;48.270;9.996;2023-03-21T18:08:00;12.40;99.90
21302;DHT22;10810;48.270;9.996;2023-03-21T18:10:45;12.40;99.90
21302;DHT22;10810;48.270;9.996;2023-03-21T18:13:30;12.30;99.90
21302;DHT22;10810;48.270;9.996;2023-03-21T18:16:30;12.20;99.90
21302;DHT22;10810;48.270;9.996;2023-03-21T18:19:06;12.10;99.90
21302;DHT22;10810;48.270;9.996;2023-03-21T18:22:21;11.20;99.90
21302;DHT22;10810;48.270;9.996;2023-03-21T18:24:51;11.80;99.90
21302;DHT22;10810;48.270;9.996;2023-03-21T18:31:12;11.70;99.90
21302;DHT22;10810;48.270;9.996;2023-03-21T18:37:09;11.80;99.90
21302;DHT22;10810;48.270;9.996;2023-03-21T18:39:56;11.90;99.90
21302;DHT22;10810;48.270;9.996;2023-03-21T18:42:43;11.70;99.90
21302;DHT22;10810;48.270;9.996;2023-03-21T18:45:26;11.70;99.90
21302;DHT22;10810;48.270;9.996;2023-03-21T18:47:58;11.50;99.90
21302;DHT22;10810;48.270;9.996;2023-03-21T18:50:39;10.10;99.90
21302;DHT22;10810;48.270;9.996;2023-03-21T18:53:06;11.30;99.90
21302;DHT22;10810;48.270;9.996;2023-03-21T18:55:37;11.30;99.90
21302;DHT22;10810;48.270;9.996;2023-03-21T18:58:09;11.20;99.90
21302;DHT22;10810;48.270;9.996;2023-03-21T19:00:37;11.20;99.90
21302;DHT22;10810;48.270;9.996;2023-03-21T19:03:22;11.20;99.90
21302;DHT22;10810;48.270;9.996;2023-03-21T19:05:58;11.20;99.90
21302;DHT22;10810;48.270;9.996;2023-03-21T19:08:43;11.30;99.90
21302;DHT22;10810;48.270;9.996;2023-03-21T19:11:11;11.30;99.90
21302;DHT22;10810;48.270;9.996;2023-03-21T19:13:50;11.30;99.90
21302;DHT22;10810;48.270;9.996;2023-03-21T19:16:33;11.20;99.90
21302;DHT22;10810;48.270;9.996;2023-03-21T19:19:11;11.10;99.90
21302;DHT22;10810;48.270;9.996;2023-03-21T19:22:10;11.10;99.90
21302;DHT22;10810;48.270;9.996;2023-03-21T19:24:52;11.00;99.90
21302;DHT22;10810;48.270;9.996;2023-03-21T19:27:19;10.90;99.90
21302;DHT22;10810;48.270;9.996;2023-03-21T19:29:46;10.90;99.90
21302;DHT22;10810;48.270;9.996;2023-03-21T19:32:13;10.90;99.90
21302;DHT22;10810;48.270;9.996;2023-03-21T19:34:42;10.80;99.90
21302;DHT22;10810;48.270;9.996;2023-03-21T19:37:09;10.80;99.90
21302;DHT22;10810;48.270;9.996;2023-03-21T19:39:36;10.90;99.90
21302;DHT22;10810;48.270;9.996;2023-03-21T19:42:03;10.90;99.90
21302;DHT22;10810;48.270;9.996;2023-03-21T19:44:32;10.80;99.90
21302;DHT22;10810;48.270;9.996;2023-03-21T19:47:00;10.90;99.90
21302;DHT22;10810;48.270;9.996;2023-03-21T19:49:27;10.90;99.90
21302;DHT22;10810;48.270;9.996;2023-03-21T19:51:56;10.90;99.90
21302;DHT22;10810;48.270;9.996;2023-03-21T19:54:23;10.90;99.90
21302;DHT22;10810;48.270;9.996;2023-03-21T19:56:50;10.80;99.90
21302;DHT22;10810;48.270;9.996;2023-03-21T19:59:17;10.80;99.90
21302;DHT22;10810;48.270;9.996;2023-03-21T20:01:45;10.80;99.90
21302;DHT22;10810;48.270;9.996;2023-03-21T20:04:12;10.70;99.90
21302;DHT22;10810;48.270;9.996;2023-03-21T20:06:42;10.70;99.90
21302;DHT22;10810;48.270;9.996;2023-03-21T20:09:11;10.60;99.90
21302;DHT22;10810;48.270;9.996;2023-03-21T20:11:38;10.50;99.90
21302;DHT22;10810;48.270;9.996;2023-03-21T20:14:05;10.60;99.90
21302;DHT22;10810;48.270;9.996;2023-03-21T20:16:33;10.50;99.90
21302;DHT22;10810;48.270;9.996;2023-03-21T20:19:02;10.40;99.90
21302;DHT22;10810;48.270;9.996;2023-03-21T20:21:29;10.40;99.90
21302;DHT22;10810;48.270;9.996;2023-03-21T20:23:56;10.40;99.90
21302;DHT22;10810;48.270;9.996;2023-03-21T20:26:24;10.50;99.90
21302;DHT22;10810;48.270;9.996;2023-03-21T20:28:51;10.40;99.90
21302;DHT22;10810;48.270;9.996;2023-03-21T20:31:22;10.40;99.90
21302;DHT22;10810;48.270;9.996;2023-03-21T20:33:50;10.40;99.90
21302;DHT22;10810;48.270;9.996;2023-03-21T20:36:18;10.40;99.90
21302;DHT22;10810;48.270;9.996;2023-03-21T20:38:47;10.50;99.90
21302;DHT22;10810;48.270;9.996;2023-03-21T20:41:14;10.40;99.90
21302;DHT22;10810;48.270;9.996;2023-03-21T20:43:43;10.50;99.90
21302;DHT22;10810;48.270;9.996;2023-03-21T20:46:11;10.30;99.90
21302;DHT22;10810;48.270;9.996;2023-03-21T20:48:40;10.20;99.90
21302;DHT22;10810;48.270;9.996;2023-03-21T20:51:09;10.20;99.90
21302;DHT22;10810;48.270;9.996;2023-03-21T20:57:16;10.30;99.90
21302;DHT22;10810;48.270;9.996;2023-03-21T20:59:45;10.10;99.90
21302;DHT22;10810;48.270;9.996;2023-03-21T21:02:12;9.20;99.90
21302;DHT22;10810;48.270;9.996;2023-03-21T21:04:40;10.20;99.90
21302;DHT22;10810;48.270;9.996;2023-03-21T21:07:09;10.20;99.90
21302;DHT22;10810;48.270;9.996;2023-03-21T21:09:42;10.30;99.90
21302;DHT22;10810;48.270;9.996;2023-03-21T21:12:09;10.20;99.90
21302;DHT22;10810;48.270;9.996;2023-03-21T21:14:38;10.20;99.90
21302;DHT22;10810;48.270;9.996;2023-03-21T21:17:08;10.00;99.90
21302;DHT22;10810;48.270;9.996;2023-03-21T21:19:37;10.00;99.90
21302;DHT22;10810;48.270;9.996;2023-03-21T21:22:14;10.00;99.90
21302;DHT22;10810;48.270;9.996;2023-03-21T21:24:41;10.00;99.90
21302;DHT22;10810;48.270;9.996;2023-03-21T21:27:12;10.10;99.90
21302;DHT22;10810;48.270;9.996;2023-03-21T21:29:39;10.20;99.90
21302;DHT22;10810;48.270;9.996;2023-03-21T21:32:09;10.10;99.90
21302;DHT22;10810;48.270;9.996;2023-03-21T21:34:36;10.00;99.90
21302;DHT22;10810;48.270;9.996;2023-03-21T21:37:03;9.90;99.90
21302;DHT22;10810;48.270;9.996;2023-03-21T21:39:32;10.00;99.90
21302;DHT22;10810;48.270;9.996;2023-03-21T21:42:02;10.10;99.90
21302;DHT22;10810;48.270;9.996;2023-03-21T21:44:31;10.10;99.90
21302;DHT22;10810;48.270;9.996;2023-03-21T21:47:01;10.00;99.90
21302;DHT22;10810;48.270;9.996;2023-03-21T21:49:35;10.00;99.90
21302;DHT22;10810;48.270;9.996;2023-03-21T21:52:02;8.90;99.90
21302;DHT22;10810;48.270;9.996;2023-03-21T21:54:31;10.00;99.90
21302;DHT22;10810;48.270;9.996;2023-03-21T21:56:59;9.90;99.90
21302;DHT22;10810;48.270;9.996;2023-03-21T21:59:29;9.90;99.90
21302;DHT22;10810;48.270;9.996;2023-03-21T22:01:58;9.90;99.90
21302;DHT22;10810;48.270;9.996;2023-03-21T22:04:26;10.00;99.90
21302;DHT22;10810;48.270;9.996;2023-03-21T22:06:56;10.00;99.90
21302;DHT22;10810;48.270;9.996;2023-03-21T22:09:23;10.00;99.90
21302;DHT22;10810;48.270;9.996;2023-03-21T22:11:50;9.70;99.90
21302;DHT22;10810;48.270;9.996;2023-03-21T22:14:17;9.60;99.90
21302;DHT22;10810;48.270;9.996;2023-03-21T22:16:49;9.50;99.90
21302;DHT22;10810;48.270;9.996;2023-03-21T22:19:16;9.50;99.90
21302;DHT22;10810;48.270;9.996;2023-03-21T22:21:45;9.70;99.90
21302;DHT22;10810;48.270;9.996;2023-03-21T22:24:14;9.90;99.90
21302;DHT22;10810;48.270;9.996;2023-03-21T22:26:41;10.00;99.90
21302;DHT22;10810;48.270;9.996;2023-03-21T22:29:08;10.20;99.90
21302;DHT22;10810;48.270;9.996;2023-03-21T22:31:40;10.30;99.90
21302;DHT22;10810;48.270;9.996;2023-03-21T22:34:12;10.30;99.90
21302;DHT22;10810;48.270;9.996;2023-03-21T22:36:39;10.30;99.90
21302;DHT22;10810;48.270;9.996;2023-03-21T22:39:13;10.30;99.90
21302;DHT22;10810;48.270;9.996;2023-03-21T22:41:40;10.20;99.90
21302;DHT22;10810;48.270;9.996;2023-03-21T22:44:07;10.30;99.90
21302;DHT22;10810;48.270;9.996;2023-03-21T22:46:34;10.40;99.90
21302;DHT22;10810;48.270;9.996;2023-03-21T22:49:05;10.40;99.90
21302;DHT22;10810;48.270;9.996;2023-03-21T22:51:37;10.30;99.90
21302;DHT22;10810;48.270;9.996;2023-03-21T22:54:08;10.40;99.90
21302;DHT22;10810;48.270;9.996;2023-03-21T22:56:42;10.50;99.90
21302;DHT22;10810;48.270;9.996;2023-03-21T22:59:12;10.40;99.90
21302;DHT22;10810;48.270;9.996;2023-03-21T23:01:39;10.40;99.90
21302;DHT22;10810;48.270;9.996;2023-03-21T23:04:10;9.50;99.90
21302;DHT22;10810;48.270;9.996;2023-03-21T23:06:40;10.30;99.90
21302;DHT22;10810;48.270;9.996;2023-03-21T23:09:08;10.40;99.90
21302;DHT22;10810;48.270;9.996;2023-03-21T23:11:37;10.30;99.90
21302;DHT22;10810;48.270;9.996;2023-03-21T23:14:16;10.30;99.90
21302;DHT22;10810;48.270;9.996;2023-03-21T23:16:44;10.20;99.90
21302;DHT22;10810;48.270;9.996;2023-03-21T23:19:15;10.20;99.90
21302;DHT22;10810;48.270;9.996;2023-03-21T23:21:44;10.20;99.90
21302;DHT22;10810;48.270;9.996;2023-03-21T23:24:13;10.20;99.90
21302;DHT22;10810;48.270;9.996;2023-03-21T23:26:40;10.20;99.90
21302;DHT22;10810;48.270;9.996;2023-03-21T23:29:08;10.10;99.90
21302;DHT22;10810;48.270;9.996;2023-03-21T23:31:39;10.10;99.90
21302;DHT22;10810;48.270;9.996;2023-03-21T23:34:06;10.20;99.90
21302;DHT22;10810;48.270;9.996;2023-03-21T23:36:35;10.20;99.90
21302;DHT22;10810;48.270;9.996;2023-03-21T23:39:04;10.10;99.90
21302;DHT22;10810;48.270;9.996;2023-03-21T23:41:34;10.20;99.90
21302;DHT22;10810;48.270;9.996;2023-03-21T23:44:07;10.20;99.90
21302;DHT22;10810;48.270;9.996;2023-03-21T23:46:34;10.20;99.90
21302;DHT22;10810;48.270;9.996;2023-03-21T23:49:03;10.20;99.90
21302;DHT22;10810;48.270;9.996;2023-03-21T23:51:30;10.10;99.90
21302;DHT22;10810;48.270;9.996;2023-03-21T23:53:57;10.10;99.90
21302;DHT22;10810;48.270;9.996;2023-03-21T23:56:26;10.10;99.90
21302;DHT22;10810;48.270;9.996;2023-03-21T23:58:55;10.20;99.90
